Terminal Aerodrome Forecast
Issued by NWS

Home | Current Version | Previous Version | Text Only | Print | Product List | Glossary On
Versions: 1 2 3 4 5 6 7 8 9 10 11 12 13 14 15 16 17 18 19 20
803
FTUS46 KMTR 270520
TAFMRY
TAF
KMRY 270520Z 2706/2806 VRB04KT P6SM VCSH BKN019 BKN024 OVC050
     FM270800 25007KT P6SM FEW020 BKN035
     FM271300 28008KT P6SM BKN025
     FM271800 28012KT P6SM FEW025 SCT050
     FM272100 28013KT P6SM FEW035
     FM280400 25007KT P6SM SCT025=

USA.gov is the U.S. government's official web portal to all federal, state and local government web resources and services.